Time;durP1;ratioP1;P1;durP2;ratioP2;P2;SDS_P1;SDS_P2;PMS_P1;PMS_P2;Temp;Humidity;BMP_temperature;BMP_pressure;BME280_temperature;BME280_humidity;BME280_pressure;Samples;Min_cycle;Max_cycle;Signal;HPM_P1;HPM_P2
2022/08/02 00:00:58;;;;;;;0.40;0.40;;;21.20;70.60;;;21.23;58.76;95102.00;5073427;28;20214;-78
2022/08/02 00:03:26;;;;;;;0.40;0.40;;;21.10;70.60;;;21.19;58.56;95099.06;5088524;28;20204;-79
2022/08/02 00:05:53;;;;;;;0.40;0.40;;;21.10;70.50;;;21.13;58.04;95097.41;5070155;28;20309;-77
2022/08/02 00:08:21;;;;;;;0.50;0.50;;;21.10;70.40;;;21.14;57.47;95100.88;5053312;28;20198;-76
2022/08/02 00:10:48;;;;;;;0.50;0.50;;;21.00;70.30;;;21.14;56.66;95107.03;5063259;28;20228;-77
2022/08/02 00:13:15;;;;;;;0.40;0.40;;;20.90;69.90;;;21.14;56.34;95111.53;5086386;28;20225;-76
2022/08/02 00:15:43;;;;;;;0.40;0.40;;;20.90;69.80;;;21.12;56.56;95109.13;5071966;28;20758;-76
2022/08/02 00:18:10;;;;;;;0.40;0.40;;;20.80;69.80;;;21.07;57.59;95103.75;5072698;28;20194;-77
2022/08/02 00:20:37;;;;;;;0.40;0.40;;;20.80;70.30;;;21.04;57.55;95106.91;5073919;28;20194;-77
2022/08/02 00:23:05;;;;;;;0.40;0.40;;;20.80;70.30;;;21.00;58.21;95101.28;5090783;28;20212;-77
2022/08/02 00:25:32;;;;;;;0.40;0.40;;;20.80;70.80;;;20.95;58.17;95110.03;5073432;28;20194;-76
2022/08/02 00:27:59;;;;;;;0.40;0.40;;;20.70;70.80;;;20.93;57.76;95117.50;5081401;28;20620;-77
2022/08/02 00:30:26;;;;;;;0.50;0.50;;;20.70;70.50;;;20.91;56.98;95108.09;5068450;28;20297;-77
2022/08/02 00:32:54;;;;;;;0.40;0.40;;;20.70;70.50;;;20.89;56.90;95108.38;5073367;28;20239;-78
2022/08/02 00:35:21;;;;;;;0.50;0.50;;;20.60;70.30;;;20.89;56.78;95102.25;5089029;28;20213;-77
2022/08/02 00:37:48;;;;;;;0.40;0.40;;;20.60;70.20;;;20.87;57.13;95112.34;5085169;28;20276;-77
2022/08/02 00:40:15;;;;;;;0.40;0.40;;;20.50;70.40;;;20.81;56.88;95111.47;5063390;28;20525;-77
2022/08/02 00:42:43;;;;;;;0.50;0.50;;;20.50;70.60;;;20.77;57.59;95107.72;5070169;28;20267;-77
2022/08/02 00:45:10;;;;;;;0.50;0.50;;;20.50;70.80;;;20.74;59.52;95118.91;5082304;28;20318;-76
2022/08/02 00:47:38;;;;;;;0.40;0.40;;;20.40;71.30;;;20.69;59.77;95116.13;5075727;28;20227;-76
2022/08/02 00:50:05;;;;;;;0.40;0.40;;;20.40;71.80;;;20.67;59.79;95112.94;5053420;28;20581;-77
2022/08/02 00:52:32;;;;;;;0.47;0.47;;;20.40;72.30;;;20.61;60.27;95115.53;5052169;28;20210;-77
2022/08/02 00:54:59;;;;;;;0.30;0.30;;;20.40;72.30;;;20.58;59.63;95113.38;5084452;28;20234;-78
2022/08/02 00:57:27;;;;;;;0.50;0.50;;;20.40;72.00;;;20.57;59.71;95114.41;5081709;28;20214;-77
2022/08/02 00:59:54;;;;;;;0.40;0.40;;;20.30;72.10;;;20.57;59.30;95119.75;5054092;28;20210;-77
2022/08/02 01:02:21;;;;;;;0.40;0.40;;;20.30;71.90;;;20.52;58.35;95114.38;5055827;28;20275;-77
2022/08/02 01:04:48;;;;;;;0.40;0.40;;;20.30;71.70;;;20.57;57.81;95119.75;5071341;28;20528;-77
2022/08/02 01:07:16;;;;;;;0.40;0.40;;;20.20;71.40;;;20.56;57.63;95126.13;5054886;28;20252;-77
2022/08/02 01:09:44;;;;;;;0.40;0.40;;;20.20;71.40;;;20.55;57.50;95121.84;5071810;28;20193;-77
2022/08/02 01:12:12;;;;;;;0.40;0.40;;;20.20;71.30;;;20.54;57.30;95112.25;5079778;28;20215;-77
2022/08/02 01:14:48;;;;;;;0.40;0.40;;;20.10;71.30;;;20.53;57.03;95118.66;5087882;28;20212;-77
2022/08/02 01:17:27;;;;;;;0.40;0.40;;;20.10;72.00;;;20.50;57.33;95116.47;5090961;28;20267;-77
2022/08/02 01:20:21;;;;;;;0.50;0.50;;;20.10;71.50;;;20.45;56.82;95125.22;5073340;28;20221;-76
2022/08/02 01:23:28;;;;;;;0.40;0.40;;;20.00;71.60;;;20.43;56.68;95119.34;5090160;28;20567;-78
2022/08/02 01:25:58;;;;;;;0.47;0.47;;;20.00;71.50;;;20.42;56.88;95119.56;5072026;28;20307;-78
2022/08/02 01:28:35;;;;;;;0.50;0.50;;;20.00;71.30;;;20.39;56.51;95112.09;5089310;28;20190;-77
2022/08/02 01:31:27;;;;;;;0.40;0.40;;;19.90;71.30;;;20.36;56.47;95105.41;5069467;28;20255;-78
2022/08/02 01:34:10;;;;;;;0.40;0.40;;;19.90;71.30;;;20.33;56.45;95105.09;5084870;28;20653;-77
2022/08/02 01:36:46;;;;;;;0.40;0.40;;;19.90;71.40;;;20.28;56.84;95106.63;5068942;28;20250;-77
2022/08/02 01:39:18;;;;;;;0.40;0.40;;;19.90;71.40;;;20.30;56.66;95106.41;5068355;28;20293;-77
2022/08/02 01:41:56;;;;;;;0.50;0.50;;;19.80;71.00;;;20.28;56.33;95116.47;5068305;28;20218;-77
2022/08/02 01:44:28;;;;;;;0.40;0.40;;;19.80;71.00;;;20.26;56.80;95116.75;5085911;28;20186;-77
2022/08/02 01:47:01;;;;;;;0.50;0.50;;;19.80;70.90;;;20.24;56.52;95121.50;5067814;28;20352;-77
2022/08/02 01:49:32;;;;;;;0.40;0.40;;;19.80;71.40;;;20.19;56.41;95115.28;5037171;28;20198;-77
2022/08/02 01:52:20;;;;;;;0.40;0.40;;;19.70;72.00;;;20.22;56.55;95120.94;5070800;28;20715;-77
2022/08/02 01:55:05;;;;;;;0.50;0.50;;;19.70;71.10;;;20.23;56.71;95124.41;5075098;28;20194;-77
2022/08/02 01:57:51;;;;;;;0.40;0.40;;;19.80;71.60;;;20.23;56.90;95127.88;5074613;28;20272;-77
2022/08/02 02:00:22;;;;;;;0.50;0.50;;;19.70;71.80;;;20.25;56.41;95128.44;5068863;28;20201;-76
2022/08/02 02:02:53;;;;;;;0.45;0.45;;;19.70;71.50;;;20.26;56.90;95129.25;5085365;28;20211;-77
2022/08/02 02:05:24;;;;;;;0.40;0.40;;;19.70;71.60;;;20.28;56.94;95124.47;5062163;28;20191;-78
2022/08/02 02:07:57;;;;;;;0.40;0.40;;;19.80;71.50;;;20.27;56.58;95128.97;5054506;28;20243;-77
2022/08/02 02:10:32;;;;;;;0.40;0.40;;;19.80;71.80;;;20.25;56.65;95123.13;5058618;28;20209;-77
2022/08/02 02:13:07;;;;;;;0.40;0.40;;;19.80;71.50;;;20.24;56.95;95121.50;5055408;28;20190;-78
2022/08/02 02:15:39;;;;;;;0.40;0.40;;;19.80;71.50;;;20.20;56.42;95125.72;5055103;28;20297;-77
2022/08/02 02:18:10;;;;;;;0.50;0.50;;;19.70;71.20;;;20.18;57.14;95130.47;5086400;28;20202;-78
2022/08/02 02:20:41;;;;;;;0.40;0.40;;;19.70;71.30;;;20.14;57.51;95146.16;5052413;28;20224;-78
2022/08/02 02:23:09;;;;;;;0.50;0.50;;;19.70;71.80;;;20.11;58.55;95146.63;5092849;28;20734;-78
2022/08/02 02:25:44;;;;;;;0.40;0.40;;;19.70;72.30;;;20.07;60.21;95148.19;5076991;28;20222;-78
2022/08/02 02:28:29;;;;;;;0.50;0.50;;;19.70;72.60;;;20.06;59.87;95149.22;5060159;28;20190;-78
2022/08/02 02:31:07;;;;;;;0.43;0.43;;;19.80;73.40;;;20.04;60.58;95151.31;5093634;28;20206;-77
2022/08/02 02:33:40;;;;;;;0.40;0.40;;;19.80;73.60;;;20.02;61.44;95152.63;5075276;28;20674;-78
2022/08/02 02:36:10;;;;;;;0.57;0.57;;;19.80;74.20;;;20.00;62.28;95152.88;5066075;28;20309;-77
2022/08/02 02:38:38;;;;;;;0.50;0.50;;;19.90;74.60;;;19.96;63.53;95147.22;5072709;28;20352;-78
2022/08/02 02:41:06;;;;;;;0.45;0.45;;;19.90;75.00;;;19.97;63.20;95150.72;5091323;28;20214;-77
2022/08/02 02:43:35;;;;;;;0.40;0.40;;;19.90;75.00;;;19.98;62.83;95150.47;5076699;28;20206;-78
2022/08/02 02:46:05;;;;;;;0.40;0.40;;;19.90;75.00;;;19.98;63.23;95142.47;5055675;28;20229;-77
2022/08/02 02:48:34;;;;;;;0.43;0.43;;;20.00;75.20;;;20.02;63.54;95165.94;5063019;28;20548;-78
2022/08/02 02:51:04;;;;;;;0.40;0.40;;;20.00;75.20;;;20.02;63.13;95169.41;5075446;28;20243;-78
2022/08/02 02:53:35;;;;;;;0.50;0.50;;;20.00;75.30;;;20.04;63.06;95167.28;5075648;28;20226;-78
2022/08/02 02:56:23;;;;;;;0.50;0.50;;;20.00;75.30;;;20.06;63.68;95159.88;5078654;28;20317;-77
2022/08/02 02:58:53;;;;;;;0.40;0.40;;;20.00;75.40;;;20.06;63.67;95159.88;5072705;28;20198;-78
2022/08/02 03:01:27;;;;;;;0.40;0.40;;;20.10;75.60;;;20.05;63.53;95160.91;5060919;28;20707;-77
2022/08/02 03:04:15;;;;;;;0.43;0.43;;;20.00;75.70;;;20.06;63.86;95167.88;5075851;28;20206;-78
2022/08/02 03:06:43;;;;;;;0.40;0.40;;;20.00;75.60;;;20.09;63.63;95164.72;5056436;28;20712;-77
2022/08/02 03:09:10;;;;;;;0.40;0.40;;;20.10;75.60;;;20.11;63.69;95162.59;5093117;28;20232;-78
2022/08/02 03:11:40;;;;;;;0.45;0.45;;;20.10;75.70;;;20.08;64.47;95172.94;5080551;28;20214;-78
2022/08/02 03:14:10;;;;;;;0.40;0.40;;;20.10;75.70;;;20.12;64.33;95169.53;5055941;28;20195;-78
2022/08/02 03:16:47;;;;;;;0.40;0.40;;;20.10;75.80;;;20.13;63.69;95176.50;5071938;28;20688;-78
2022/08/02 03:19:14;;;;;;;0.40;0.40;;;20.10;76.90;;;20.12;63.98;95176.75;5039517;28;20190;-78
2022/08/02 03:21:43;;;;;;;0.40;0.40;;;20.10;75.90;;;20.10;64.23;95177.00;5071303;28;20237;-77
2022/08/02 03:24:11;;;;;;;0.40;0.40;;;20.10;75.80;;;20.11;63.93;95178.59;5087930;28;20194;-78
2022/08/02 03:26:39;;;;;;;0.43;0.43;;;20.10;75.80;;;20.08;64.36;95172.94;5062713;28;20221;-78
2022/08/02 03:29:07;;;;;;;0.40;0.40;;;20.10;75.90;;;20.08;63.53;95184.41;5073817;28;20204;-78
2022/08/02 03:31:40;;;;;;;0.40;0.40;;;20.10;75.80;;;20.05;63.48;95182.22;5075356;28;20317;-78
2022/08/02 03:34:08;;;;;;;0.40;0.40;;;20.10;76.00;;;20.04;63.88;95185.13;5085383;28;20212;-78
2022/08/02 03:36:36;;;;;;;0.40;0.40;;;20.00;75.90;;;20.00;64.57;95182.16;5070443;28;20261;-77
2022/08/02 03:39:05;;;;;;;0.50;0.50;;;20.00;76.20;;;19.99;64.99;95178.69;5068697;28;20535;-78
2022/08/02 03:41:36;;;;;;;0.40;0.40;;;20.00;76.30;;;19.99;64.60;95177.88;5072459;28;20684;-78
2022/08/02 03:44:05;;;;;;;0.40;0.40;;;20.00;76.20;;;19.99;64.73;95172.56;5073853;28;20190;-79
2022/08/02 03:46:34;;;;;;;0.40;0.40;;;20.00;76.40;;;20.03;64.45;95179.03;5055922;28;20230;-78
2022/08/02 03:49:02;;;;;;;0.47;0.47;;;20.00;76.30;;;20.02;64.27;95173.91;5088133;28;20208;-77
2022/08/02 03:51:29;;;;;;;0.50;0.50;;;20.00;76.30;;;20.04;64.27;95171.81;5069544;28;20366;-78
2022/08/02 03:53:56;;;;;;;0.40;0.40;;;20.00;76.30;;;20.03;63.76;95164.88;5037135;28;20202;-79
2022/08/02 03:56:24;;;;;;;0.40;0.40;;;20.00;76.20;;;20.02;63.60;95169.41;5053191;28;20235;-79
2022/08/02 03:59:13;;;;;;;0.40;0.40;;;20.00;76.00;;;20.02;63.79;95182.72;5053285;28;20194;-78
2022/08/02 04:01:41;;;;;;;0.40;0.40;;;20.00;76.10;;;20.02;63.56;95177.41;5085080;28;20217;-79
2022/08/02 04:04:09;;;;;;;0.40;0.40;;;20.00;76.10;;;19.97;63.88;95172.00;5072812;28;20216;-78
2022/08/02 04:06:36;;;;;;;0.40;0.40;;;19.90;76.10;;;20.02;63.65;95180.06;5072041;28;20233;-78
2022/08/02 04:09:08;;;;;;;0.50;0.50;;;19.90;75.90;;;19.97;63.44;95170.16;5072490;28;20213;-79
2022/08/02 04:11:36;;;;;;;0.43;0.43;;;19.90;75.80;;;19.96;63.67;95173.06;5073711;28;20228;-78
2022/08/02 04:14:11;;;;;;;0.40;0.40;;;19.90;76.00;;;19.92;63.70;95175.41;5072672;28;20212;-78
2022/08/02 04:16:44;;;;;;;0.40;0.40;;;19.90;76.00;;;19.95;64.14;95179.44;5072503;28;20746;-78
2022/08/02 04:19:42;;;;;;;0.40;0.40;;;19.90;76.40;;;19.92;63.53;95175.41;5073207;28;20297;-78
2022/08/02 04:22:17;;;;;;;0.40;0.40;;;19.90;76.30;;;19.93;63.85;95181.53;5074386;28;20300;-79
2022/08/02 04:24:54;;;;;;;0.40;0.40;;;19.90;76.40;;;19.93;63.70;95190.34;5090180;28;20193;-77
2022/08/02 04:27:24;;;;;;;0.35;0.35;;;19.80;76.40;;;19.99;63.61;95196.53;5075004;28;20216;-79
2022/08/02 04:30:13;;;;;;;0.40;0.40;;;19.80;76.40;;;19.97;64.38;95196.78;5081989;28;20273;-78
2022/08/02 04:32:40;;;;;;;0.50;0.50;;;19.90;76.60;;;20.02;64.10;95204.03;5043015;28;20218;-78
2022/08/02 04:35:08;;;;;;;0.30;0.30;;;19.90;76.80;;;20.05;63.98;95205.41;5074870;28;20284;-76
2022/08/02 04:37:52;;;;;;;0.40;0.40;;;19.90;76.80;;;20.07;64.42;95203.31;5063856;28;20263;-76
2022/08/02 04:40:37;;;;;;;0.40;0.40;;;19.90;76.80;;;20.10;64.34;95208.94;5074833;28;20241;-77
2022/08/02 04:43:04;;;;;;;0.40;0.40;;;20.00;76.80;;;20.14;64.05;95207.41;5078867;28;20203;-77
2022/08/02 04:45:31;;;;;;;0.60;0.60;;;20.00;76.80;;;20.20;64.13;95212.78;5062922;28;20194;-78
2022/08/02 04:47:58;;;;;;;0.40;0.40;;;20.10;76.80;;;20.22;63.86;95200.84;5095541;28;20245;-78
2022/08/02 04:50:33;;;;;;;0.40;0.40;;;20.10;76.80;;;20.31;63.98;95211.88;5091103;28;20199;-77
2022/08/02 04:53:01;;;;;;;0.40;0.40;;;20.10;76.80;;;20.35;64.03;95218.34;5078572;28;20194;-79
2022/08/02 04:55:28;;;;;;;0.43;0.43;;;20.20;76.80;;;20.40;64.37;95220.28;5091864;28;20198;-79
2022/08/02 04:57:57;;;;;;;0.40;0.40;;;20.30;76.90;;;20.49;63.91;95226.75;5056661;28;20217;-79
2022/08/02 05:00:27;;;;;;;0.40;0.40;;;20.30;76.70;;;20.55;63.07;95230.31;5103257;28;20207;-79
2022/08/02 05:02:58;;;;;;;0.40;0.40;;;20.30;76.60;;;20.61;63.05;95224.78;5076735;28;20223;-78
2022/08/02 05:05:27;;;;;;;0.50;0.50;;;20.40;76.60;;;20.72;63.34;95228.41;5047324;28;20309;-78
2022/08/02 05:07:54;;;;;;;0.40;0.40;;;20.40;76.60;;;20.83;62.63;95223.22;5079788;28;20209;-77
2022/08/02 05:10:21;;;;;;;0.40;0.40;;;20.50;76.70;;;20.93;63.08;95232.16;5079995;28;20613;-78
2022/08/02 05:12:49;;;;;;;0.40;0.40;;;20.60;76.60;;;21.03;62.97;95228.78;5096496;28;20194;-78
2022/08/02 05:15:17;;;;;;;0.30;0.30;;;20.70;76.60;;;21.17;62.53;95228.41;5078751;28;20261;-78
2022/08/02 05:17:46;;;;;;;0.40;0.40;;;20.80;76.60;;;21.25;62.65;95222.59;5080741;28;20702;-78
2022/08/02 05:20:16;;;;;;;0.40;0.40;;;20.90;76.40;;;21.31;62.30;95221.59;5094345;28;20225;-78
2022/08/02 05:22:44;;;;;;;0.40;0.40;;;21.00;76.20;;;21.40;61.98;95225.41;5062088;28;20194;-78
2022/08/02 05:25:11;;;;;;;0.40;0.40;;;21.10;76.10;;;21.48;62.20;95228.69;5068152;28;20259;-78
2022/08/02 05:27:39;;;;;;;0.40;0.40;;;21.20;76.00;;;21.53;62.07;95223.38;5068101;28;20297;-78
2022/08/02 05:30:07;;;;;;;0.40;0.40;;;21.30;75.80;;;21.58;61.74;95215.44;5065604;28;20289;-78
2022/08/02 05:32:44;;;;;;;0.40;0.40;;;21.30;75.60;;;21.69;61.37;95225.19;5082503;28;20581;-78
2022/08/02 05:35:17;;;;;;;0.40;0.40;;;21.40;76.40;;;21.77;61.25;95236.44;5085062;27;20198;-79
2022/08/02 05:37:44;;;;;;;0.40;0.40;;;21.50;75.60;;;21.84;60.99;95235.16;5070359;28;20223;-78
2022/08/02 05:40:14;;;;;;;0.30;0.30;;;21.50;75.10;;;21.93;61.16;95238.16;5093670;28;20198;-77
2022/08/02 05:42:42;;;;;;;0.40;0.40;;;21.60;75.10;;;22.01;61.07;95239.59;5084398;28;20230;-78
2022/08/02 05:45:10;;;;;;;0.40;0.40;;;21.70;75.10;;;22.10;60.97;95240.69;5063192;28;20188;-78
2022/08/02 05:47:38;;;;;;;0.47;0.47;;;21.70;75.20;;;22.19;60.83;95252.53;5094996;28;20216;-79
2022/08/02 05:50:08;;;;;;;0.40;0.40;;;21.80;75.10;;;22.31;60.82;95251.53;5065596;28;20237;-78
2022/08/02 05:53:17;;;;;;;0.30;0.30;;;21.90;75.00;;;22.39;60.69;95256.41;5063534;28;20215;-78
2022/08/02 05:55:59;;;;;;;0.30;0.30;;;22.00;74.80;;;22.53;60.24;95264.78;5085514;28;20774;-77
2022/08/02 05:59:03;;;;;;;0.40;0.40;;;22.10;74.80;;;22.60;60.07;95268.03;5090922;28;20209;-78
2022/08/02 06:01:38;;;;;;;0.40;0.40;;;22.20;74.70;;;22.69;60.31;95265.66;5084648;28;20225;-78
2022/08/02 06:04:20;;;;;;;0.30;0.30;;;22.30;74.60;;;22.73;59.87;95263.28;5056643;28;20369;-77
2022/08/02 06:06:54;;;;;;;0.40;0.40;;;22.40;74.60;;;22.80;59.92;95264.66;5062407;28;20214;-78
2022/08/02 06:09:24;;;;;;;0.40;0.40;;;22.40;74.20;;;22.83;59.63;95272.16;5073419;28;20201;-77
2022/08/02 06:11:59;;;;;;;0.40;0.40;;;22.50;74.00;;;22.87;59.46;95272.44;5093133;28;20246;-79
2022/08/02 06:14:32;;;;;;;0.50;0.50;;;22.50;73.90;;;22.88;59.48;95271.38;5058331;28;20198;-79
2022/08/02 06:17:03;;;;;;;0.40;0.40;;;22.60;74.10;;;22.90;59.40;95273.78;5061378;28;20263;-79
2022/08/02 06:19:32;;;;;;;0.40;0.40;;;22.60;73.90;;;22.94;59.20;95280.22;5097931;27;20202;-79
2022/08/02 06:22:19;;;;;;;0.50;0.50;;;22.60;73.70;;;22.97;59.36;95283.19;5068801;28;20228;-78
2022/08/02 06:25:04;;;;;;;0.40;0.40;;;22.70;73.80;;;22.97;59.15;95272.50;5064176;28;20194;-77
2022/08/02 06:27:33;;;;;;;0.38;0.38;;;22.70;73.60;;;22.98;59.04;95267.94;5072283;28;20740;-78
2022/08/02 06:30:02;;;;;;;0.40;0.40;;;22.70;73.50;;;23.08;58.83;95277.88;5074953;28;20648;-77
2022/08/02 06:32:33;;;;;;;0.30;0.30;;;22.70;73.30;;;23.08;58.54;95273.31;5055459;28;20242;-77
2022/08/02 06:35:02;;;;;;;0.40;0.40;;;22.70;73.20;;;23.07;58.73;95274.41;5073979;28;20553;-77
2022/08/02 06:37:43;;;;;;;0.35;0.35;;;22.80;73.20;;;23.06;58.48;95274.63;5059450;28;20603;-77
2022/08/02 06:40:16;;;;;;;0.40;0.40;;;22.80;73.00;;;23.02;58.42;95269.00;5104643;28;20199;-78
2022/08/02 06:43:24;;;;;;;0.40;0.40;;;22.80;72.90;;;22.93;58.71;95260.69;5068500;28;20250;-76
2022/08/02 06:45:51;;;;;;;0.40;0.40;;;22.70;72.70;;;22.90;58.35;95263.06;5092735;28;20708;-77
2022/08/02 06:48:18;;;;;;;0.30;0.30;;;22.70;72.70;;;22.86;58.30;95266.28;5049024;28;20213;-77
2022/08/02 06:50:45;;;;;;;0.32;0.32;;;22.60;72.60;;;22.82;58.16;95269.75;5064704;28;20257;-77
2022/08/02 06:53:13;;;;;;;0.43;0.43;;;22.60;72.70;;;22.76;58.15;95268.91;5079182;28;20199;-76
2022/08/02 06:55:41;;;;;;;0.40;0.40;;;22.50;72.70;;;22.73;58.42;95271.28;5087362;28;20311;-77
2022/08/02 06:58:12;;;;;;;0.30;0.30;;;22.40;72.70;;;22.67;58.16;95267.81;5052567;28;20588;-79
2022/08/02 07:00:42;;;;;;;0.38;0.38;;;22.40;72.80;;;22.62;58.49;95265.91;5072580;28;20753;-78
2022/08/02 07:03:09;;;;;;;0.40;0.40;;;22.30;72.90;;;22.55;58.66;95263.44;5090777;28;20196;-77
2022/08/02 07:05:36;;;;;;;0.50;0.50;;;22.30;72.90;;;22.47;58.57;95260.47;5071579;28;20227;-78
2022/08/02 07:08:04;;;;;;;0.40;0.40;;;22.30;73.10;;;22.51;58.63;95270.38;5071739;28;20203;-77
2022/08/02 07:10:32;;;;;;;0.30;0.30;;;22.20;73.20;;;22.51;59.26;95259.69;5053201;28;20214;-77
2022/08/02 07:12:59;;;;;;;0.30;0.30;;;22.20;73.50;;;22.59;59.15;95257.59;5073129;28;20279;-78
2022/08/02 07:15:26;;;;;;;0.38;0.38;;;22.20;73.60;;;22.68;59.27;95258.72;5070862;28;20206;-77
2022/08/02 07:17:54;;;;;;;0.40;0.40;;;22.30;73.80;;;22.78;58.93;95253.41;5074415;28;20222;-78
2022/08/02 07:20:21;;;;;;;0.30;0.30;;;22.40;73.50;;;22.88;58.70;95246.50;5047214;28;20216;-77
2022/08/02 07:22:48;;;;;;;0.30;0.30;;;22.50;73.20;;;22.98;58.56;95247.31;5046382;28;20694;-78
2022/08/02 07:25:15;;;;;;;0.38;0.38;;;22.60;73.10;;;23.10;58.45;95241.75;5073746;28;20245;-78
2022/08/02 07:27:42;;;;;;;0.38;0.38;;;22.70;72.80;;;23.24;58.38;95242.09;5070893;28;20218;-78
2022/08/02 07:30:10;;;;;;;0.30;0.30;;;22.90;72.80;;;23.33;57.98;95237.81;5071729;28;20187;-77
2022/08/02 07:32:37;;;;;;;0.30;0.30;;;23.00;72.90;;;23.46;58.04;95246.41;5085249;28;20241;-77
2022/08/02 07:35:06;;;;;;;0.30;0.30;;;23.10;72.80;;;23.59;57.87;95237.88;5056898;28;20194;-78
2022/08/02 07:37:37;;;;;;;0.30;0.30;;;23.20;72.70;;;23.71;57.72;95244.84;5066472;28;20213;-78
2022/08/02 07:40:25;;;;;;;0.50;0.50;;;23.30;72.30;;;23.84;58.18;95252.38;5072125;28;20195;-78
2022/08/02 07:42:55;;;;;;;0.30;0.30;;;23.50;72.50;;;23.92;57.49;95249.16;5085010;28;20199;-78
2022/08/02 07:45:31;;;;;;;0.40;0.40;;;23.60;72.00;;;24.07;57.02;95242.19;5085623;28;20261;-78
2022/08/02 07:47:58;;;;;;;0.35;0.35;;;23.70;71.80;;;24.16;56.40;95243.25;5068991;28;20198;-79
2022/08/02 07:50:27;;;;;;;0.32;0.32;;;23.80;71.60;;;24.27;56.42;95244.84;5082790;28;20208;-78
2022/08/02 07:52:54;;;;;;;0.30;0.30;;;23.90;70.90;;;24.37;56.13;95238.66;5051958;28;20286;-78
2022/08/02 07:55:25;;;;;;;0.30;0.30;;;24.00;70.80;;;24.48;55.81;95239.44;5069313;28;20205;-78
2022/08/02 07:58:09;;;;;;;0.30;0.30;;;24.10;70.60;;;24.58;55.39;95244.78;5065447;28;20203;-78
2022/08/02 08:00:43;;;;;;;0.38;0.38;;;24.20;70.40;;;24.68;55.24;95246.69;5063011;28;20222;-77
2022/08/02 08:03:11;;;;;;;0.40;0.40;;;24.30;70.20;;;24.77;55.35;95244.22;5063641;28;20197;-78
2022/08/02 08:05:38;;;;;;;0.60;0.60;;;24.50;70.20;;;24.86;55.07;95245.25;5064766;28;20225;-80
2022/08/02 08:08:06;;;;;;;0.22;0.22;;;24.50;70.00;;;24.93;54.82;95236.91;5086606;28;20573;-77
2022/08/02 08:10:33;;;;;;;0.30;0.30;;;24.60;69.70;;;25.00;54.68;95233.91;5081939;28;20206;-78
2022/08/02 08:13:01;;;;;;;0.30;0.30;;;24.70;69.30;;;25.07;54.37;95235.25;5096425;28;20305;-81
2022/08/02 08:15:28;;;;;;;0.38;0.38;;;24.80;69.40;;;25.15;54.04;95228.50;5044272;28;20412;-79
2022/08/02 08:17:55;;;;;;;0.38;0.38;;;24.90;69.40;;;25.22;54.01;95225.50;5069893;28;20225;-79
2022/08/02 08:20:23;;;;;;;0.57;0.57;;;24.90;68.80;;;25.36;54.29;95236.44;5072792;28;20200;-79
2022/08/02 08:22:50;;;;;;;0.30;0.30;;;25.00;68.90;;;25.44;53.93;95233.19;5068175;28;20243;-79
2022/08/02 08:25:17;;;;;;;0.30;0.30;;;25.10;68.60;;;25.52;53.63;95242.53;5072992;28;20214;-78
2022/08/02 08:27:51;;;;;;;0.40;0.40;;;25.20;68.60;;;25.62;53.34;95245.16;5073722;28;20203;-80
2022/08/02 08:30:21;;;;;;;0.30;0.30;;;25.30;67.60;;;25.70;52.78;95247.22;5090220;28;20196;-80
2022/08/02 08:32:49;;;;;;;0.30;0.30;;;25.40;67.80;;;25.79;53.03;95242.06;5055631;28;20207;-80
2022/08/02 08:35:17;;;;;;;0.30;0.30;;;25.50;67.70;;;25.89;53.12;95246.56;5073712;28;20208;-79
2022/08/02 08:37:44;;;;;;;0.30;0.30;;;25.60;67.70;;;25.96;52.88;95244.34;5073301;28;20250;-79
2022/08/02 08:40:13;;;;;;;0.30;0.30;;;25.70;67.80;;;26.06;52.77;95251.53;5090472;28;20631;-79
2022/08/02 08:42:45;;;;;;;0.30;0.30;;;25.70;67.80;;;26.09;51.33;95240.25;5056644;28;20567;-80
2022/08/02 08:45:13;;;;;;;0.30;0.30;;;25.80;66.60;;;26.15;51.59;95241.81;5090484;28;20195;-78
2022/08/02 08:47:42;;;;;;;0.30;0.30;;;25.90;67.20;;;26.22;52.13;95238.78;5073593;28;20271;-80
2022/08/02 08:50:19;;;;;;;0.30;0.30;;;25.90;67.10;;;26.31;51.76;95245.16;5072832;28;20657;-79
2022/08/02 08:53:03;;;;;;;0.30;0.30;;;26.00;66.80;;;26.40;51.16;95237.25;5068525;28;20662;-79
2022/08/02 08:55:33;;;;;;;0.40;0.40;;;26.10;66.40;;;26.46;51.26;95236.13;5056647;28;20272;-79
2022/08/02 08:58:03;;;;;;;0.30;0.30;;;26.20;66.50;;;26.58;51.29;95234.94;5071653;28;20274;-79
2022/08/02 09:00:34;;;;;;;0.30;0.30;;;26.20;66.30;;;26.66;51.09;95242.38;5058964;28;20192;-78
2022/08/02 09:03:05;;;;;;;0.20;0.20;;;26.40;66.50;;;26.78;51.40;95239.31;5095418;28;20631;-79
2022/08/02 09:05:39;;;;;;;0.30;0.30;;;26.50;66.40;;;26.88;50.71;95241.88;5063895;28;20262;-78
2022/08/02 09:08:07;;;;;;;0.30;0.30;;;26.60;65.30;;;26.98;50.66;95236.38;5044381;28;20749;-78
2022/08/02 09:10:47;;;;;;;0.30;0.30;;;26.70;65.70;;;27.10;50.21;95235.13;5075042;28;20223;-78
2022/08/02 09:13:20;;;;;;;0.30;0.30;;;26.80;65.20;;;27.25;49.96;95239.53;5056998;28;20302;-78
2022/08/02 09:16:07;;;;;;;0.20;0.20;;;26.90;65.30;;;27.39;50.12;95243.13;5057987;28;20216;-78
2022/08/02 09:18:45;;;;;;;0.25;0.25;;;27.10;65.60;;;27.52;49.24;95243.50;5039044;28;20322;-79
2022/08/02 09:21:15;;;;;;;0.30;0.30;;;27.20;64.40;;;27.65;49.12;95240.09;5087921;28;20242;-78
2022/08/02 09:23:50;;;;;;;0.20;0.20;;;27.30;64.70;;;27.79;49.35;95246.34;5053235;28;20678;-79
2022/08/02 09:26:21;;;;;;;0.30;0.30;;;27.50;64.20;;;27.93;49.07;95240.19;5052230;28;20346;-79
2022/08/02 09:28:51;;;;;;;0.30;0.30;;;27.60;64.20;;;28.05;48.53;95240.56;5056635;28;20297;-79
2022/08/02 09:31:23;;;;;;;0.20;0.20;;;27.80;64.00;;;28.16;48.61;95243.88;5052246;28;20345;-79
2022/08/02 09:33:57;;;;;;;0.20;0.20;;;27.80;63.40;;;28.33;48.29;95245.22;5053927;28;20203;-79
2022/08/02 09:36:28;;;;;;;0.20;0.20;;;28.00;63.70;;;28.49;48.31;95246.53;5087229;28;20218;-79
2022/08/02 09:39:02;;;;;;;0.20;0.20;;;28.20;63.70;;;28.65;47.66;95247.06;5068992;28;20224;-80
2022/08/02 09:41:33;;;;;;;0.40;0.40;;;28.30;63.20;;;28.77;47.28;95234.97;5058471;28;20226;-79
2022/08/02 09:44:04;;;;;;;0.25;0.25;;;28.50;63.00;;;29.02;47.51;95245.25;5057691;28;21693;-79
2022/08/02 09:46:44;;;;;;;0.30;0.30;;;28.70;62.80;;;29.17;46.72;95240.66;5068465;28;21466;-80
2022/08/02 09:49:13;;;;;;;0.20;0.20;;;28.90;62.20;;;29.40;46.13;95236.13;5052730;28;20422;-78
2022/08/02 09:51:53;;;;;;;0.30;0.30;;;29.10;62.20;;;29.56;45.77;95241.97;5053439;28;20220;-78
2022/08/02 09:54:27;;;;;;;0.22;0.22;;;29.30;61.80;;;29.70;45.08;95233.84;5053893;28;21056;-77
2022/08/02 09:56:59;;;;;;;0.22;0.22;;;29.40;60.50;;;29.80;44.40;95230.09;5052321;28;20228;-79
2022/08/02 09:59:27;;;;;;;0.30;0.30;;;29.60;60.20;;;29.83;44.23;95230.28;5070936;28;20263;-77
2022/08/02 10:01:57;;;;;;;0.20;0.20;;;29.60;60.10;;;29.90;44.77;95226.34;5070411;28;20561;-78
2022/08/02 10:04:32;;;;;;;0.30;0.30;;;29.80;60.00;;;29.98;44.27;95223.72;5087045;27;20231;-78
2022/08/02 10:07:18;;;;;;;0.30;0.30;;;29.80;59.30;;;30.12;43.76;95230.97;5056768;28;20223;-76
2022/08/02 10:09:48;;;;;;;0.38;0.38;;;30.00;59.50;;;30.20;43.72;95230.22;5060975;28;20667;-78
2022/08/02 10:12:16;;;;;;;0.30;0.30;;;30.10;58.60;;;30.25;43.08;95227.38;5057011;28;20312;-78
2022/08/02 10:14:44;;;;;;;0.30;0.30;;;30.20;59.10;;;30.33;42.93;95225.81;5037578;28;20744;-78
2022/08/02 10:17:13;;;;;;;0.20;0.20;;;30.20;58.00;;;30.35;42.63;95232.50;5045615;28;20234;-78
2022/08/02 10:19:41;;;;;;;0.20;0.20;;;30.20;57.70;;;30.37;42.98;95231.41;5061849;28;21200;-78
2022/08/02 10:22:28;;;;;;;0.30;0.30;;;30.30;57.90;;;30.35;42.48;95229.03;5051728;28;20229;-77
2022/08/02 10:24:56;;;;;;;0.20;0.20;;;30.30;57.50;;;30.32;42.65;95229.63;5047071;28;20205;-79
2022/08/02 10:27:26;;;;;;;0.20;0.20;;;30.30;57.40;;;30.30;42.50;95229.16;5056444;28;20577;-78
2022/08/02 10:30:14;;;;;;;0.30;0.30;;;30.30;57.50;;;30.28;42.79;95234.84;5059695;28;20206;-78
2022/08/02 10:32:47;;;;;;;0.30;0.30;;;30.20;57.80;;;30.24;41.65;95228.47;5095214;28;20225;-79
2022/08/02 10:35:21;;;;;;;0.30;0.30;;;30.20;56.70;;;30.17;41.71;95222.72;5040120;28;20297;-79
2022/08/02 10:38:02;;;;;;;0.20;0.20;;;30.20;57.70;;;30.11;41.38;95227.44;5055576;28;20232;-78
2022/08/02 10:40:51;;;;;;;0.20;0.20;;;30.10;56.00;;;30.02;42.05;95230.09;5053749;28;20934;-78